createdAt,value
2017-07-08T00:01:51.711Z,21.80
2017-07-08T00:04:20.317Z,21.90
2017-07-08T00:06:49.217Z,21.90
2017-07-08T00:09:18.122Z,22.00
2017-07-08T00:11:46.995Z,22.00
2017-07-08T00:14:16.654Z,22.00
2017-07-08T00:16:45.550Z,22.00
2017-07-08T00:19:14.441Z,22.00
2017-07-08T00:21:43.328Z,22.00
2017-07-08T00:24:12.200Z,22.00
2017-07-08T00:26:41.090Z,22.00
2017-07-08T00:29:09.981Z,22.00
2017-07-08T00:31:38.861Z,21.90
2017-07-08T00:34:07.750Z,21.90
2017-07-08T00:36:36.641Z,21.90
2017-07-08T00:39:05.207Z,21.90
2017-07-08T00:41:34.100Z,21.90
2017-07-08T00:44:03.007Z,21.90
2017-07-08T00:46:31.620Z,21.90
2017-07-08T00:49:00.521Z,21.90
2017-07-08T00:51:29.439Z,21.90
2017-07-08T00:53:58.333Z,21.80
2017-07-08T00:56:27.984Z,21.80
2017-07-08T00:58:56.886Z,21.80
2017-07-08T01:01:25.781Z,21.80
2017-07-08T01:03:54.678Z,21.80
2017-07-08T01:06:23.579Z,21.80
2017-07-08T01:08:52.488Z,21.80
2017-07-08T01:11:21.380Z,21.70
2017-07-08T01:13:50.281Z,21.70
2017-07-08T01:16:19.191Z,21.70
2017-07-08T01:18:48.073Z,21.70
2017-07-08T01:21:16.927Z,21.70
2017-07-08T01:23:45.783Z,21.70
2017-07-08T01:26:14.668Z,21.60
2017-07-08T01:28:43.553Z,21.60
2017-07-08T01:31:12.104Z,21.60
2017-07-08T01:33:40.993Z,21.60
2017-07-08T01:36:09.877Z,21.60
2017-07-08T01:38:38.766Z,21.60
2017-07-08T01:41:07.656Z,21.60
2017-07-08T01:43:36.565Z,21.50
2017-07-08T01:46:05.458Z,21.50
2017-07-08T01:48:34.357Z,21.50
2017-07-08T01:51:03.232Z,21.40
2017-07-08T01:53:32.117Z,21.40
2017-07-08T01:56:00.322Z,21.40
2017-07-08T01:58:29.222Z,21.50
2017-07-08T02:00:58.879Z,21.50
2017-07-08T02:03:27.785Z,21.40
2017-07-08T02:05:56.686Z,21.40
2017-07-08T02:08:25.571Z,21.40
2017-07-08T02:10:54.460Z,21.30
2017-07-08T02:13:23.327Z,21.30
2017-07-08T02:15:52.174Z,21.30
2017-07-08T02:18:21.083Z,21.20
2017-07-08T02:20:49.968Z,21.20
2017-07-08T02:23:18.857Z,21.10
2017-07-08T02:25:48.517Z,21.00
2017-07-08T02:28:17.372Z,21.00
2017-07-08T02:30:46.231Z,21.00
2017-07-08T02:33:15.905Z,20.90
2017-07-08T02:35:44.798Z,20.90
2017-07-08T02:38:13.705Z,21.00
2017-07-08T02:40:42.622Z,21.00
2017-07-08T02:43:11.181Z,21.00
2017-07-08T02:45:40.086Z,21.00
2017-07-08T02:48:08.977Z,21.00
2017-07-08T02:50:38.616Z,21.10
2017-07-08T02:53:07.516Z,21.10
2017-07-08T02:55:36.421Z,21.00
2017-07-08T02:58:05.319Z,21.00
2017-07-08T03:00:34.229Z,21.00
2017-07-08T03:03:02.428Z,21.00
2017-07-08T03:05:31.312Z,21.00
2017-07-08T03:08:00.217Z,21.00
2017-07-08T03:10:29.120Z,20.90
2017-07-08T03:12:58.021Z,20.90
2017-07-08T03:15:26.916Z,20.80
2017-07-08T03:17:55.918Z,20.80
2017-07-08T03:20:24.786Z,20.80
2017-07-08T03:22:54.444Z,20.80
2017-07-08T03:25:23.340Z,20.80
2017-07-08T03:27:52.255Z,20.80
2017-07-08T03:30:21.147Z,20.80
2017-07-08T03:32:50.035Z,20.80
2017-07-08T03:35:18.244Z,20.90
2017-07-08T03:37:47.152Z,20.80
2017-07-08T03:40:16.045Z,20.80
2017-07-08T03:42:44.904Z,20.90
2017-07-08T03:45:13.809Z,20.90
2017-07-08T03:47:42.026Z,20.90
2017-07-08T03:50:10.938Z,20.90
2017-07-08T03:52:39.839Z,20.90
2017-07-08T03:55:08.071Z,20.90
2017-07-08T03:57:36.982Z,20.90
2017-07-08T04:00:05.873Z,20.90
2017-07-08T04:02:34.764Z,20.80
2017-07-08T04:05:03.652Z,20.80
2017-07-08T04:07:32.540Z,20.80
2017-07-08T04:10:01.434Z,20.80
2017-07-08T04:12:30.324Z,20.80
2017-07-08T04:14:59.213Z,20.80
2017-07-08T04:17:28.117Z,20.80
2017-07-08T04:19:56.979Z,20.80
2017-07-08T04:22:25.852Z,20.80
2017-07-08T04:24:54.752Z,20.80
2017-07-08T04:27:23.657Z,20.80
2017-07-08T04:29:53.189Z,20.80
2017-07-08T04:32:22.080Z,20.90
2017-07-08T04:34:50.985Z,20.90
2017-07-08T04:37:19.876Z,20.90
2017-07-08T04:39:48.773Z,20.90
2017-07-08T04:42:17.665Z,21.00
2017-07-08T04:44:46.570Z,21.00
2017-07-08T04:47:15.429Z,21.00
2017-07-08T04:49:43.636Z,21.10
2017-07-08T04:52:12.524Z,21.10
2017-07-08T04:54:41.412Z,21.10
2017-07-08T04:57:10.305Z,21.10
2017-07-08T04:59:39.196Z,21.10
2017-07-08T05:02:08.096Z,21.10
2017-07-08T05:04:36.996Z,21.10
2017-07-08T05:07:05.936Z,21.20
2017-07-08T05:09:34.829Z,21.20
2017-07-08T05:12:03.750Z,21.20
2017-07-08T05:14:32.637Z,21.20
2017-07-08T05:17:01.607Z,21.20
2017-07-08T05:19:30.492Z,21.30
2017-07-08T05:21:59.383Z,21.30
2017-07-08T05:24:28.275Z,21.40
2017-07-08T05:26:58.615Z,21.50
2017-07-08T05:29:27.520Z,21.50
2017-07-08T05:31:56.433Z,21.50
2017-07-08T05:34:25.320Z,21.50
2017-07-08T05:36:54.216Z,21.60
2017-07-08T05:39:23.089Z,21.60
2017-07-08T05:41:51.985Z,21.60
2017-07-08T05:44:21.372Z,21.50
2017-07-08T05:46:51.208Z,21.50
2017-07-08T05:49:20.104Z,21.50
2017-07-08T07:12:50.110Z,21.50
2017-07-08T07:15:19.789Z,23.30
2017-07-08T07:17:48.684Z,23.30
2017-07-08T07:20:16.897Z,23.00
2017-07-08T07:22:46.681Z,23.10
2017-07-08T07:25:15.577Z,23.00
2017-07-08T07:27:44.697Z,23.00
2017-07-08T07:30:13.610Z,23.10
2017-07-08T07:32:42.528Z,23.10
2017-07-08T07:35:11.425Z,23.20
2017-07-08T07:37:40.332Z,23.30
2017-07-08T07:40:09.238Z,23.50
2017-07-08T07:42:38.136Z,23.50
2017-07-08T07:45:07.028Z,23.60
2017-07-08T07:47:35.934Z,23.80
2017-07-08T07:50:05.621Z,23.90
2017-07-08T07:52:34.816Z,23.90
2017-07-08T07:55:03.704Z,23.80
2017-07-08T07:57:31.934Z,23.60
2017-07-08T08:00:00.827Z,23.60
2017-07-08T08:02:29.719Z,23.60
2017-07-08T08:04:58.622Z,23.60
2017-07-08T08:07:27.528Z,23.70
2017-07-08T08:09:56.437Z,23.70
2017-07-08T08:12:25.452Z,23.90
2017-07-08T08:14:54.355Z,23.90
2017-07-08T08:17:25.357Z,24.00
2017-07-08T08:19:54.257Z,24.00
2017-07-08T08:22:23.151Z,24.20
2017-07-08T08:24:51.705Z,24.30
2017-07-08T08:27:20.566Z,24.30
2017-07-08T08:29:52.180Z,24.20
2017-07-08T08:32:21.076Z,24.30
2017-07-08T08:34:51.552Z,24.20
2017-07-08T08:37:20.463Z,24.20
2017-07-08T08:39:49.381Z,24.20
2017-07-08T08:42:19.780Z,24.40
2017-07-08T08:44:48.691Z,24.60
2017-07-08T08:47:17.784Z,24.50
2017-07-08T08:49:46.688Z,24.50
2017-07-08T08:52:15.554Z,24.50
2017-07-08T08:54:44.455Z,24.70
2017-07-08T08:57:13.333Z,24.80
2017-07-08T08:59:42.240Z,24.70
2017-07-08T09:02:11.150Z,24.80
2017-07-08T09:04:40.049Z,24.80
2017-07-08T09:07:08.910Z,24.80
2017-07-08T09:09:37.894Z,24.80
2017-07-08T09:12:06.798Z,24.80
2017-07-08T09:14:35.684Z,24.80
2017-07-08T09:17:04.572Z,25.00
2017-07-08T09:19:33.187Z,25.00
2017-07-08T09:22:02.090Z,25.00
2017-07-08T09:24:30.980Z,24.90
2017-07-08T09:26:59.839Z,24.90
2017-07-08T09:29:29.681Z,25.00
2017-07-08T09:31:58.601Z,25.00
2017-07-08T09:34:28.272Z,25.10
2017-07-08T09:36:57.173Z,25.10
2017-07-08T09:39:26.092Z,25.20
2017-07-08T09:41:55.757Z,25.20
2017-07-08T09:44:24.657Z,25.20
2017-07-08T09:46:53.561Z,25.30
2017-07-08T09:49:22.658Z,25.40
2017-07-08T09:51:51.571Z,25.50
2017-07-08T09:54:20.905Z,25.60
2017-07-08T09:56:49.823Z,25.60
2017-07-08T09:59:18.738Z,25.60
2017-07-08T10:01:47.645Z,25.60
2017-07-08T10:04:17.982Z,25.70
2017-07-08T10:06:47.658Z,25.80
2017-07-08T10:09:17.072Z,25.70
2017-07-08T10:11:45.984Z,25.70
2017-07-08T10:14:15.645Z,25.60
2017-07-08T10:16:44.562Z,25.60
2017-07-08T10:19:13.471Z,25.70
2017-07-08T10:21:43.137Z,25.60
2017-07-08T10:24:12.020Z,25.60
2017-07-08T10:26:40.909Z,25.60
2017-07-08T10:29:09.859Z,25.60
2017-07-08T10:31:39.525Z,25.70
2017-07-08T10:34:08.416Z,25.60
2017-07-08T10:36:37.307Z,25.60
2017-07-08T10:39:06.290Z,25.70
2017-07-08T10:41:35.198Z,25.90
2017-07-08T10:44:04.149Z,26.00
2017-07-08T10:46:33.048Z,26.00
2017-07-08T10:49:01.944Z,25.90
2017-07-08T11:38:08.623Z,26.40
2017-07-08T11:40:37.510Z,26.40
2017-07-08T11:43:07.188Z,26.40
2017-07-08T11:45:36.778Z,26.40
2017-07-08T11:48:05.670Z,26.20
2017-07-08T11:50:35.421Z,26.20
2017-07-08T11:53:04.125Z,26.30
2017-07-08T11:55:33.783Z,26.20
2017-07-08T11:58:02.670Z,26.20
2017-07-08T12:00:31.285Z,26.20
2017-07-08T12:03:00.145Z,26.10
2017-07-08T12:05:29.029Z,26.10
2017-07-08T12:07:57.916Z,26.20
2017-07-08T12:10:26.814Z,26.10
2017-07-08T12:12:55.697Z,26.10
2017-07-08T12:15:24.588Z,26.10
2017-07-08T12:17:53.470Z,26.30
2017-07-08T12:20:23.114Z,26.10
2017-07-08T12:22:52.010Z,26.10
2017-07-08T12:25:20.884Z,26.10
2017-07-08T12:27:49.740Z,26.00
2017-07-08T12:30:19.399Z,26.00
2017-07-08T12:32:48.313Z,26.00
2017-07-08T12:35:17.223Z,26.10
2017-07-08T12:37:46.110Z,26.30
2017-07-08T12:40:16.518Z,26.60
2017-07-08T12:42:45.417Z,26.90
2017-07-08T12:45:14.045Z,26.80
2017-07-08T12:47:43.670Z,26.90
2017-07-08T12:50:12.261Z,26.90
2017-07-08T12:52:40.886Z,26.90
2017-07-08T12:55:10.270Z,26.90
2017-07-08T12:57:39.152Z,26.80
2017-07-08T13:00:08.041Z,26.90
2017-07-08T13:02:36.674Z,26.70
2017-07-08T13:05:05.288Z,26.80
2017-07-08T13:07:33.920Z,27.00
2017-07-08T13:10:04.304Z,27.20
2017-07-08T13:12:32.954Z,27.20
2017-07-08T13:15:01.565Z,27.10
2017-07-08T13:17:31.053Z,27.00
2017-07-08T13:19:59.655Z,27.00
2017-07-08T13:22:28.286Z,27.10
2017-07-08T13:24:57.870Z,27.00
2017-07-08T13:27:26.498Z,26.90
2017-07-08T13:30:20.800Z,26.90
2017-07-08T13:32:49.438Z,26.90
2017-07-08T13:38:16.063Z,26.80
2017-07-08T13:40:44.671Z,26.90
2017-07-08T13:43:13.574Z,27.10
2017-07-08T13:45:42.781Z,27.20
2017-07-08T15:13:11.235Z,27.50
2017-07-08T15:15:39.923Z,27.40
2017-07-08T15:18:09.222Z,27.40
2017-07-08T15:20:37.847Z,27.30
2017-07-08T15:23:07.239Z,27.10
2017-07-08T15:25:35.866Z,27.20
2017-07-08T15:28:04.459Z,27.10
2017-07-08T15:30:33.103Z,27.10
2017-07-08T15:33:01.741Z,27.30
2017-07-08T15:35:30.358Z,27.40
2017-07-08T15:37:58.942Z,27.50
2017-07-08T15:40:27.596Z,27.40
2017-07-08T15:42:56.225Z,27.50
2017-07-08T15:45:24.845Z,27.60
2017-07-08T15:47:53.518Z,27.60
2017-07-08T15:50:22.910Z,27.30
2017-07-08T15:52:52.310Z,27.30
2017-07-08T15:55:21.663Z,27.20
2017-07-08T15:57:50.287Z,27.20
2017-07-08T16:00:18.547Z,27.00
2017-07-08T16:02:47.173Z,26.90
2017-07-08T16:05:15.792Z,27.00
2017-07-08T16:07:44.381Z,27.10
2017-07-08T16:10:13.005Z,26.90
2017-07-08T16:12:41.630Z,26.80
2017-07-08T16:15:10.278Z,26.80
2017-07-08T16:17:38.893Z,26.80
2017-07-08T16:20:07.530Z,26.80
2017-07-08T16:22:36.173Z,26.80
2017-07-08T16:25:04.805Z,26.80
2017-07-08T16:27:33.427Z,26.70
2017-07-08T16:30:02.833Z,26.60
2017-07-08T16:32:31.451Z,26.60
2017-07-08T16:35:00.091Z,26.70
2017-07-08T16:37:29.496Z,26.90
2017-07-08T16:39:58.905Z,26.90
2017-07-08T16:42:28.974Z,26.80
2017-07-08T16:44:57.459Z,26.80
2017-07-08T16:47:26.093Z,26.80
2017-07-08T16:49:54.708Z,26.70
2017-07-08T16:52:23.328Z,26.70
2017-07-08T16:54:51.945Z,26.80
2017-07-08T16:57:20.591Z,26.70
2017-07-08T16:59:49.238Z,26.60
2017-07-08T17:02:17.855Z,26.70
2017-07-08T17:04:47.492Z,26.80
2017-07-08T17:07:16.109Z,26.80
2017-07-08T17:09:44.736Z,26.90
2017-07-08T17:12:13.363Z,26.90
2017-07-08T17:17:33.224Z,26.60
2017-07-08T17:20:07.314Z,26.50
2017-07-08T17:22:36.297Z,26.50
2017-07-08T17:25:06.881Z,26.60
2017-07-08T17:30:31.127Z,26.60
2017-07-08T17:35:59.879Z,26.60
2017-07-08T17:38:28.514Z,26.50
2017-07-08T17:40:57.889Z,26.40
2017-07-08T17:43:35.154Z,26.40
2017-07-08T17:46:07.950Z,26.40
2017-07-08T17:48:40.012Z,26.40
2017-07-08T17:51:08.897Z,26.30
2017-07-08T17:53:37.818Z,26.30
2017-07-08T17:56:10.380Z,26.30
2017-07-08T17:58:44.612Z,26.30
2017-07-08T18:04:31.989Z,26.20
2017-07-08T18:07:00.628Z,26.10
2017-07-08T18:09:30.430Z,26.10
2017-07-08T18:11:59.067Z,26.00
2017-07-08T18:17:04.269Z,25.80
2017-07-08T18:19:32.949Z,25.80
2017-07-08T18:22:02.596Z,25.80
2017-07-08T18:24:31.217Z,25.80
2017-07-08T18:27:00.110Z,25.80
2017-07-08T18:29:29.000Z,25.70
2017-07-08T18:31:57.935Z,25.70
2017-07-08T18:34:28.869Z,25.70
2017-07-08T18:36:58.026Z,25.60
2017-07-08T18:39:26.918Z,25.60
2017-07-08T18:41:55.811Z,25.60
2017-07-08T18:44:24.708Z,25.50
2017-07-08T18:46:53.590Z,25.50
2017-07-08T18:49:22.486Z,25.40
2017-07-08T18:51:51.404Z,25.40
2017-07-08T18:54:22.760Z,25.30
2017-07-08T18:56:52.033Z,25.30
2017-07-08T18:59:21.995Z,25.30
2017-07-08T19:01:50.587Z,25.20
2017-07-08T19:04:21.528Z,25.20
2017-07-08T19:06:54.003Z,25.20
2017-07-08T19:09:24.842Z,25.20
2017-07-08T19:11:54.026Z,25.20
2017-07-08T19:14:22.912Z,25.20
2017-07-08T19:16:52.217Z,25.10
2017-07-08T19:19:21.118Z,25.10
2017-07-08T19:21:50.663Z,25.10
2017-07-08T19:24:19.549Z,25.00
2017-07-08T19:26:48.445Z,25.00
2017-07-08T19:29:17.308Z,24.90
2017-07-08T19:31:46.189Z,24.90
2017-07-08T19:34:15.078Z,24.80
2017-07-08T19:36:43.982Z,24.80
2017-07-08T19:39:13.746Z,24.70
2017-07-08T19:41:43.434Z,24.60
2017-07-08T19:44:12.324Z,24.60
2017-07-08T19:46:41.208Z,24.60
2017-07-08T19:49:10.107Z,24.50
2017-07-08T19:51:39.006Z,24.50
2017-07-08T19:54:07.916Z,24.40
2017-07-08T19:56:36.804Z,24.30
2017-07-08T19:59:05.740Z,24.10
2017-07-08T20:01:34.627Z,24.00
2017-07-08T20:04:03.529Z,23.90
2017-07-08T20:06:32.410Z,23.70
2017-07-08T20:09:01.294Z,23.70
2017-07-08T20:11:30.177Z,23.80
2017-07-08T20:13:59.065Z,23.80
2017-07-08T20:16:27.953Z,23.80
2017-07-08T20:18:58.292Z,23.80
2017-07-08T20:21:27.198Z,23.80
2017-07-08T20:23:56.588Z,23.70
2017-07-08T20:26:26.250Z,23.50
2017-07-08T20:28:58.123Z,23.50
2017-07-08T20:31:27.026Z,23.50
2017-07-08T20:33:55.918Z,23.60
2017-07-08T20:36:24.817Z,23.60
2017-07-08T20:38:54.502Z,23.60
2017-07-08T20:41:24.082Z,23.60
2017-07-08T20:43:53.054Z,23.50
2017-07-08T20:46:21.947Z,23.50
2017-07-08T20:48:50.875Z,23.50
2017-07-08T20:51:19.749Z,23.40
2017-07-08T20:53:48.635Z,23.40
2017-07-08T20:56:17.533Z,23.30
2017-07-08T20:58:46.393Z,23.30
2017-07-08T21:01:15.280Z,23.30
2017-07-08T21:03:44.294Z,23.30
2017-07-08T21:06:13.228Z,23.20
2017-07-08T21:08:42.140Z,23.20
2017-07-08T21:11:11.054Z,23.10
2017-07-08T21:13:40.925Z,23.10
2017-07-08T21:16:09.834Z,23.10
2017-07-08T21:18:39.469Z,23.00
2017-07-08T21:21:08.360Z,23.00
2017-07-08T21:23:37.218Z,22.90
2017-07-08T21:26:06.114Z,22.90
2017-07-08T21:28:35.775Z,22.80
2017-07-08T21:31:04.665Z,22.80
2017-07-08T21:33:33.535Z,22.70
2017-07-08T21:36:02.407Z,22.70
2017-07-08T21:38:32.079Z,22.60
2017-07-08T21:41:00.980Z,22.60
2017-07-08T21:43:29.886Z,22.70
2017-07-08T21:45:58.755Z,22.70
2017-07-08T21:48:27.667Z,22.70
2017-07-08T21:50:57.341Z,22.70
2017-07-08T21:53:26.233Z,22.70
2017-07-08T21:55:55.120Z,22.70
2017-07-08T21:58:24.933Z,22.70
2017-07-08T22:00:53.841Z,22.60
2017-07-08T22:03:22.712Z,22.60
2017-07-08T22:05:51.617Z,22.60
2017-07-08T22:08:20.533Z,22.60
2017-07-08T22:10:49.430Z,22.50
2017-07-08T22:13:18.312Z,22.40
2017-07-08T22:15:47.212Z,22.40
2017-07-08T22:18:16.115Z,22.40
2017-07-08T22:20:45.017Z,22.40
2017-07-08T22:23:14.665Z,22.30
2017-07-08T22:25:43.526Z,22.30
2017-07-08T22:28:13.157Z,22.30
2017-07-08T22:30:42.056Z,22.30
2017-07-08T22:33:11.049Z,22.30
2017-07-08T22:35:39.946Z,22.30
2017-07-08T22:38:08.846Z,22.20
2017-07-08T22:40:37.742Z,22.20
2017-07-08T22:43:06.642Z,22.10
2017-07-08T22:45:35.550Z,22.10
2017-07-08T22:48:04.453Z,22.00
2017-07-08T22:50:33.356Z,22.00
2017-07-08T22:53:02.989Z,22.00
2017-07-08T22:55:32.644Z,22.00
2017-07-08T22:58:01.537Z,22.10
2017-07-08T23:00:30.433Z,22.00
2017-07-08T23:02:59.320Z,22.00
2017-07-08T23:05:28.221Z,21.90
2017-07-08T23:07:57.152Z,21.80
2017-07-08T23:10:26.052Z,21.80
2017-07-08T23:12:54.950Z,21.70
2017-07-08T23:15:23.813Z,21.70
2017-07-08T23:17:53.431Z,21.50
2017-07-08T23:20:23.071Z,21.60
2017-07-08T23:22:51.960Z,21.60
2017-07-08T23:25:20.854Z,21.60
2017-07-08T23:27:49.758Z,21.60
2017-07-08T23:30:18.656Z,21.50
2017-07-08T23:32:47.549Z,21.50
2017-07-08T23:35:16.450Z,21.40
2017-07-08T23:37:45.345Z,21.50
2017-07-08T23:40:14.243Z,21.40
2017-07-08T23:42:43.143Z,21.50
2017-07-08T23:45:12.017Z,21.40
2017-07-08T23:47:40.915Z,21.40
2017-07-08T23:50:09.833Z,21.40
2017-07-08T23:52:39.490Z,21.40
2017-07-08T23:55:08.382Z,21.30
2017-07-08T23:57:37.875Z,21.30
